createdAt,value
2022-11-28T00:02:10.266Z,53.90
2022-11-28T00:04:42.261Z,52.00
2022-11-28T00:07:14.748Z,50.00
2022-11-28T00:09:46.643Z,49.30
2022-11-28T00:12:18.208Z,51.10
2022-11-28T00:14:49.725Z,49.70
2022-11-28T00:17:21.621Z,45.40
2022-11-28T00:19:53.149Z,45.50
2022-11-28T00:22:24.617Z,37.60
2022-11-28T00:24:56.397Z,33.80
2022-11-28T00:27:27.941Z,33.50
2022-11-28T00:29:59.818Z,32.50
2022-11-28T00:32:31.397Z,33.90
2022-11-28T00:35:03.120Z,32.00
2022-11-28T00:37:34.659Z,30.40
2022-11-28T00:40:07.448Z,27.20
2022-11-28T00:42:39.293Z,28.50
2022-11-28T00:45:12.019Z,30.10
2022-11-28T00:47:43.612Z,31.60
2022-11-28T00:50:14.951Z,34.40
2022-11-28T00:52:46.471Z,34.50
2022-11-28T00:55:18.178Z,34.30
2022-11-28T00:57:50.326Z,35.30
2022-11-28T01:00:23.621Z,36.30
2022-11-28T01:02:55.115Z,32.50
2022-11-28T01:05:26.712Z,33.00
2022-11-28T01:07:58.211Z,38.30
2022-11-28T01:10:29.872Z,35.20
2022-11-28T01:13:01.431Z,38.70
2022-11-28T01:15:32.971Z,37.30
2022-11-28T01:18:04.468Z,37.30
2022-11-28T01:20:35.996Z,37.90
2022-11-28T01:23:07.654Z,40.20
2022-11-28T01:25:39.211Z,39.80
2022-11-28T01:28:10.756Z,34.90
2022-11-28T01:30:42.361Z,31.10
2022-11-28T01:33:14.246Z,31.70
2022-11-28T01:35:54.510Z,31.40
2022-11-28T01:38:26.829Z,29.40
2022-11-28T01:40:59.285Z,28.20
2022-11-28T01:43:31.084Z,31.20
2022-11-28T01:46:03.099Z,28.60
2022-11-28T01:48:40.010Z,25.30
2022-11-28T01:51:12.893Z,34.30
2022-11-28T01:53:47.593Z,37.80
2022-11-28T01:56:25.998Z,38.10
2022-11-28T01:59:03.604Z,39.20
2022-11-28T02:01:35.489Z,37.60
2022-11-28T02:04:07.396Z,38.40
2022-11-28T02:06:38.953Z,42.30
2022-11-28T02:09:13.650Z,40.50
2022-11-28T02:12:20.328Z,39.70
2022-11-28T02:15:32.227Z,35.20
2022-11-28T02:18:18.182Z,35.20
2022-11-28T02:21:23.979Z,33.50
2022-11-28T02:24:31.447Z,38.80
2022-11-28T02:27:22.179Z,35.80
2022-11-28T02:30:13.647Z,35.50
2022-11-28T02:33:14.030Z,30.30
2022-11-28T02:35:56.878Z,28.10
2022-11-28T02:38:43.383Z,28.60
2022-11-28T02:41:27.859Z,27.50
2022-11-28T02:44:11.062Z,26.70
2022-11-28T02:46:52.723Z,26.20
2022-11-28T02:49:29.701Z,26.60
2022-11-28T02:52:07.278Z,26.60
2022-11-28T02:54:40.795Z,28.70
2022-11-28T02:57:12.572Z,27.60
2022-11-28T02:59:52.010Z,31.10
2022-11-28T03:02:29.249Z,31.70
2022-11-28T03:05:08.896Z,32.80
2022-11-28T03:07:57.491Z,32.50
2022-11-28T03:10:34.840Z,34.50
2022-11-28T03:13:16.157Z,32.30
2022-11-28T03:15:58.100Z,35.20
2022-11-28T03:18:39.650Z,32.50
2022-11-28T03:21:18.921Z,32.60
2022-11-28T03:23:56.105Z,34.90
2022-11-28T03:26:36.014Z,34.40
2022-11-28T03:29:14.395Z,33.70
2022-11-28T03:31:50.545Z,34.00
2022-11-28T03:34:28.066Z,29.20
2022-11-28T03:37:04.317Z,25.10
2022-11-28T03:39:39.279Z,21.90
2022-11-28T03:42:15.840Z,22.20
2022-11-28T03:44:50.751Z,20.60
2022-11-28T03:47:23.257Z,21.30
2022-11-28T03:49:58.764Z,19.90
2022-11-28T03:52:34.042Z,18.30
2022-11-28T03:55:12.429Z,23.60
2022-11-28T03:57:50.908Z,23.00
2022-11-28T04:00:25.176Z,20.90
2022-11-28T04:03:03.790Z,24.40
2022-11-28T04:05:43.184Z,26.00
2022-11-28T04:08:18.633Z,28.90
2022-11-28T04:10:58.055Z,25.80
2022-11-28T04:13:33.851Z,24.90
2022-11-28T04:16:11.252Z,25.20
2022-11-28T04:18:51.464Z,24.60
2022-11-28T04:21:30.903Z,25.70
2022-11-28T04:24:06.498Z,27.90
2022-11-28T04:26:42.417Z,29.30
2022-11-28T04:29:19.811Z,29.10
2022-11-28T04:31:55.749Z,24.50
2022-11-28T04:34:30.449Z,22.40
2022-11-28T04:37:08.311Z,24.60
2022-11-28T04:39:45.914Z,25.20
2022-11-28T04:42:22.282Z,24.60
2022-11-28T04:44:57.821Z,23.90
2022-11-28T04:47:30.315Z,22.10
2022-11-28T04:50:02.007Z,24.60
2022-11-28T04:52:41.116Z,27.20
2022-11-28T04:55:19.815Z,28.90
2022-11-28T04:57:57.422Z,28.40
2022-11-28T05:00:29.729Z,29.30
2022-11-28T05:03:01.483Z,28.40
2022-11-28T05:05:33.533Z,31.90
2022-11-28T05:08:05.354Z,33.00
2022-11-28T05:10:37.102Z,32.90
2022-11-28T05:13:08.851Z,35.30
2022-11-28T05:15:40.446Z,38.20
2022-11-28T05:18:12.291Z,37.40
2022-11-28T05:20:44.244Z,36.00
2022-11-28T05:23:15.754Z,35.40
2022-11-28T05:25:47.228Z,33.80
2022-11-28T05:28:18.791Z,31.40
2022-11-28T05:30:59.311Z,29.90
2022-11-28T05:33:31.331Z,24.70
2022-11-28T05:36:11.381Z,21.30
2022-11-28T05:38:45.650Z,21.60
2022-11-28T05:41:25.102Z,20.20
2022-11-28T05:43:57.160Z,22.80
2022-11-28T05:46:29.691Z,21.10
2022-11-28T05:49:01.693Z,21.40
2022-11-28T05:51:33.383Z,23.50
2022-11-28T05:54:05.390Z,24.30
2022-11-28T05:56:42.259Z,23.60
2022-11-28T05:59:15.128Z,24.80
2022-11-28T06:01:46.651Z,23.50
2022-11-28T06:04:18.308Z,24.20
2022-11-28T06:06:52.433Z,24.10
2022-11-28T06:09:26.009Z,25.00
2022-11-28T06:11:57.947Z,23.40
2022-11-28T06:14:29.444Z,26.10
2022-11-28T06:17:01.233Z,26.50
2022-11-28T06:19:33.237Z,27.60
2022-11-28T06:22:04.719Z,27.40
2022-11-28T06:24:36.288Z,28.30
2022-11-28T06:27:07.976Z,26.00
2022-11-28T06:29:39.488Z,22.30
2022-11-28T06:32:11.092Z,24.30
2022-11-28T06:34:42.756Z,21.40
2022-11-28T06:37:14.402Z,22.30
2022-11-28T06:39:46.357Z,20.70
2022-11-28T06:42:18.233Z,20.40
2022-11-28T06:44:49.728Z,19.40
2022-11-28T06:47:21.433Z,24.60
2022-11-28T06:49:52.975Z,23.60
2022-11-28T06:52:24.540Z,26.00
2022-11-28T06:54:56.295Z,25.40
2022-11-28T06:57:28.442Z,27.20
2022-11-28T06:59:59.990Z,27.20
2022-11-28T07:02:31.755Z,25.30
2022-11-28T07:05:03.477Z,26.80
2022-11-28T07:07:49.998Z,24.70
2022-11-28T07:10:25.664Z,26.10
2022-11-28T07:13:04.940Z,23.80
2022-11-28T07:15:37.105Z,23.80
2022-11-28T07:18:08.829Z,23.90
2022-11-28T07:20:40.502Z,23.60
2022-11-28T07:23:12.234Z,22.90
2022-11-28T07:25:43.870Z,22.70
2022-11-28T07:28:18.438Z,22.20
2022-11-28T07:30:58.738Z,21.80
2022-11-28T07:33:31.129Z,21.30
2022-11-28T07:36:09.124Z,22.00
2022-11-28T07:38:40.756Z,21.70
2022-11-28T07:41:13.855Z,20.90
2022-11-28T07:43:47.676Z,23.10
2022-11-28T07:46:21.079Z,24.90
2022-11-28T07:48:52.711Z,25.20
2022-11-28T07:51:26.228Z,26.50
2022-11-28T07:53:58.245Z,26.60
2022-11-28T07:56:57.163Z,29.10
2022-11-28T07:59:24.821Z,27.10
2022-11-28T08:01:56.426Z,30.90
2022-11-28T08:04:28.082Z,31.60
2022-11-28T08:06:59.741Z,27.00
2022-11-28T08:09:32.281Z,24.80
2022-11-28T08:12:03.808Z,20.20
2022-11-28T08:14:35.296Z,18.90
2022-11-28T08:17:06.814Z,16.30
2022-11-28T08:19:38.547Z,19.60
2022-11-28T08:22:10.042Z,17.20
2022-11-28T08:24:42.057Z,19.40
2022-11-28T08:27:13.979Z,21.20
2022-11-28T08:29:50.395Z,19.60
2022-11-28T08:32:23.810Z,23.80
2022-11-28T08:34:55.448Z,23.00
2022-11-28T08:37:26.981Z,22.80
2022-11-28T08:39:58.607Z,21.90
2022-11-28T08:42:30.331Z,21.90
2022-11-28T08:45:02.169Z,22.20
2022-11-28T08:47:33.792Z,21.10
2022-11-28T08:50:06.466Z,18.90
2022-11-28T08:52:38.075Z,17.00
2022-11-28T08:55:11.013Z,18.10
2022-11-28T08:57:42.517Z,19.10
2022-11-28T09:00:16.984Z,17.80
2022-11-28T09:02:48.509Z,16.70
2022-11-28T09:05:20.071Z,21.50
2022-11-28T09:07:51.621Z,20.00
2022-11-28T09:10:23.225Z,19.30
2022-11-28T09:12:55.427Z,20.20
2022-11-28T09:15:27.000Z,22.50
2022-11-28T09:17:58.457Z,22.70
2022-11-28T09:20:30.132Z,17.70
2022-11-28T09:23:01.669Z,17.30
2022-11-28T09:25:35.458Z,16.80
2022-11-28T09:28:07.894Z,17.10
2022-11-28T09:30:39.690Z,18.10
2022-11-28T09:33:12.552Z,18.50
2022-11-28T09:35:44.310Z,18.20
2022-11-28T09:38:15.960Z,18.40
2022-11-28T09:40:47.729Z,18.50
2022-11-28T09:43:24.833Z,18.00
2022-11-28T09:45:57.499Z,18.60
2022-11-28T09:48:35.133Z,18.70
2022-11-28T09:51:18.976Z,17.20
2022-11-28T09:56:28.224Z,14.60
2022-11-28T09:59:03.550Z,15.60
2022-11-28T10:01:42.445Z,15.60
2022-11-28T10:04:19.817Z,18.40
2022-11-28T10:07:03.659Z,20.50
2022-11-28T10:09:49.150Z,20.20
2022-11-28T10:12:34.608Z,19.00
2022-11-28T10:15:29.296Z,21.90
2022-11-28T10:18:16.343Z,23.50
2022-11-28T10:20:52.676Z,22.50
2022-11-28T10:23:29.930Z,23.90
2022-11-28T10:26:07.701Z,19.60
2022-11-28T10:28:43.848Z,21.20
2022-11-28T10:31:22.110Z,18.40
2022-11-28T10:34:00.227Z,18.20
2022-11-28T10:36:49.742Z,17.30
2022-11-28T10:39:21.426Z,20.90
2022-11-28T10:42:13.676Z,23.70
2022-11-28T10:44:59.296Z,24.90
2022-11-28T10:47:48.776Z,21.70
2022-11-28T10:50:32.491Z,18.90
2022-11-28T10:55:46.176Z,20.50
2022-11-28T10:58:22.647Z,24.60
2022-11-28T11:00:58.835Z,23.90
2022-11-28T11:03:32.636Z,25.00
2022-11-28T11:06:05.114Z,24.60
2022-11-28T11:08:40.368Z,20.30
2022-11-28T11:11:24.286Z,17.10
2022-11-28T11:14:04.733Z,25.40
2022-11-28T11:16:53.749Z,23.00
2022-11-28T11:19:32.461Z,23.10
2022-11-28T11:22:15.989Z,27.60
2022-11-28T11:25:04.849Z,21.00
2022-11-28T11:27:38.204Z,24.00
2022-11-28T11:30:28.656Z,25.30
2022-11-28T11:33:02.632Z,25.50
2022-11-28T11:35:44.036Z,27.00
2022-11-28T11:38:31.273Z,25.60
2022-11-28T11:41:28.875Z,25.80
2022-11-28T11:44:35.244Z,22.40
2022-11-28T11:47:08.882Z,18.10
2022-11-28T11:52:22.160Z,17.80
2022-11-28T11:55:03.356Z,23.40
2022-11-28T11:57:39.763Z,16.70
2022-11-28T12:00:20.794Z,18.10
2022-11-28T12:02:57.844Z,19.60
2022-11-28T12:05:52.704Z,21.80
2022-11-28T12:08:34.023Z,23.90
2022-11-28T12:11:15.785Z,22.20
2022-11-28T12:13:47.628Z,20.50
2022-11-28T12:16:38.085Z,19.90
2022-11-28T12:19:20.390Z,19.40
2022-11-28T12:22:05.556Z,18.70
2022-11-28T12:24:47.453Z,20.00
2022-11-28T12:27:32.583Z,18.90
2022-11-28T12:30:20.658Z,14.30
2022-11-28T12:33:06.455Z,14.80
2022-11-28T12:35:41.924Z,15.20
2022-11-28T12:38:27.209Z,18.70
2022-11-28T12:41:15.205Z,18.00
2022-11-28T12:44:00.150Z,17.80
2022-11-28T12:46:41.058Z,17.70
2022-11-28T12:49:20.115Z,15.90
2022-11-28T12:52:05.249Z,19.60
2022-11-28T12:54:50.818Z,18.50
2022-11-28T12:57:33.542Z,21.40
2022-11-28T13:00:11.697Z,20.10
2022-11-28T13:02:57.071Z,21.70
2022-11-28T13:05:38.908Z,17.80
2022-11-28T13:08:31.760Z,18.70
2022-11-28T13:11:14.895Z,18.70
2022-11-28T13:13:52.787Z,19.40
2022-11-28T13:16:31.785Z,20.00
2022-11-28T13:19:12.484Z,20.40
2022-11-28T13:21:53.960Z,19.40
2022-11-28T13:24:32.720Z,21.50
2022-11-28T13:27:11.940Z,20.70
2022-11-28T13:29:52.522Z,23.40
2022-11-28T13:32:32.067Z,24.80
2022-11-28T13:35:04.783Z,22.40
2022-11-28T13:40:41.196Z,21.10
2022-11-28T13:43:21.106Z,20.50
2022-11-28T13:45:53.256Z,24.60
2022-11-28T13:52:35.151Z,19.30
2022-11-28T13:55:27.863Z,20.30
2022-11-28T13:57:59.684Z,21.20
2022-11-28T14:00:31.281Z,22.30
2022-11-28T14:03:02.943Z,22.60
2022-11-28T14:05:37.998Z,19.40
2022-11-28T14:08:25.256Z,20.60
2022-11-28T14:11:11.314Z,21.70
2022-11-28T14:14:07.163Z,16.90
2022-11-28T14:16:56.035Z,16.20
2022-11-28T14:19:39.972Z,15.30
2022-11-28T14:24:58.882Z,15.40
2022-11-28T14:27:33.393Z,24.10
2022-11-28T14:30:06.111Z,23.40
2022-11-28T14:32:41.733Z,24.50
2022-11-28T14:35:39.321Z,22.30
2022-11-28T14:38:43.538Z,25.90
2022-11-28T14:41:16.820Z,20.70
2022-11-28T14:43:49.556Z,20.70
2022-11-28T14:46:33.703Z,21.40
2022-11-28T14:49:23.220Z,18.30
2022-11-28T14:52:38.465Z,21.50
2022-11-28T14:55:22.457Z,20.50
2022-11-28T14:58:00.462Z,20.00
2022-11-28T15:00:44.066Z,18.10
2022-11-28T15:03:36.788Z,20.70
2022-11-28T15:06:14.725Z,22.30
2022-11-28T15:09:00.987Z,23.80
2022-11-28T15:12:04.893Z,23.20
2022-11-28T15:14:37.654Z,21.50
2022-11-28T15:17:14.697Z,19.30
2022-11-28T15:19:50.087Z,21.30
2022-11-28T15:22:40.521Z,20.70
2022-11-28T15:25:22.724Z,26.50
2022-11-28T15:27:55.518Z,30.30
2022-11-28T15:30:28.296Z,25.00
2022-11-28T15:33:01.455Z,26.10
2022-11-28T15:35:33.240Z,28.70
2022-11-28T15:38:04.975Z,25.60
2022-11-28T15:40:38.160Z,36.40
2022-11-28T15:43:14.889Z,28.30
2022-11-28T15:45:51.441Z,22.50
2022-11-28T15:48:39.323Z,23.50
2022-11-28T15:51:27.872Z,22.20
2022-11-28T15:54:00.395Z,25.20
2022-11-28T15:56:34.855Z,26.00
2022-11-28T15:59:06.594Z,26.60
2022-11-28T16:01:38.392Z,35.20
2022-11-28T16:04:15.931Z,28.60
2022-11-28T16:06:51.382Z,35.10
2022-11-28T16:09:30.858Z,29.80
2022-11-28T16:12:03.846Z,28.60
2022-11-28T16:14:43.844Z,29.70
2022-11-28T16:17:23.357Z,30.50
2022-11-28T16:19:57.678Z,30.90
2022-11-28T16:22:34.812Z,31.80
2022-11-28T16:25:23.449Z,33.00
2022-11-28T16:27:57.383Z,26.30
2022-11-28T16:30:37.431Z,23.50
2022-11-28T16:33:39.795Z,24.30
2022-11-28T16:36:19.033Z,22.70
2022-11-28T16:38:52.618Z,26.10
2022-11-28T16:44:02.617Z,25.10
2022-11-28T16:46:37.731Z,29.50
2022-11-28T16:49:29.739Z,31.10
2022-11-28T16:52:43.826Z,31.60
2022-11-28T16:55:40.420Z,27.10
2022-11-28T16:58:20.826Z,28.00
2022-11-28T17:01:11.244Z,28.50
2022-11-28T17:03:48.998Z,27.60
2022-11-28T17:06:28.539Z,29.10
2022-11-28T17:09:00.179Z,26.60
2022-11-28T17:11:35.101Z,24.20
2022-11-28T17:14:13.105Z,16.50
2022-11-28T17:16:45.569Z,21.70
2022-11-28T17:19:17.640Z,21.50
2022-11-28T17:21:51.838Z,21.00
2022-11-28T17:24:25.512Z,20.20
2022-11-28T17:26:57.065Z,22.80
2022-11-28T17:29:29.348Z,26.20
2022-11-28T17:32:02.191Z,24.10
2022-11-28T17:34:35.253Z,26.60
2022-11-28T17:37:06.972Z,25.20
2022-11-28T17:39:38.545Z,28.40
2022-11-28T17:42:11.313Z,28.60
2022-11-28T17:44:43.271Z,28.70
2022-11-28T17:47:15.033Z,29.30
2022-11-28T17:49:46.764Z,29.40
2022-11-28T17:52:20.269Z,28.40
2022-11-28T17:57:22.993Z,28.60
2022-11-28T17:59:55.079Z,29.40
2022-11-28T18:02:26.759Z,28.30
2022-11-28T18:04:58.387Z,29.60
2022-11-28T18:07:30.135Z,29.30
2022-11-28T18:10:01.787Z,25.40
2022-11-28T18:12:33.574Z,22.60
2022-11-28T18:15:05.826Z,22.60
2022-11-28T18:17:38.096Z,22.50
2022-11-28T18:20:12.237Z,22.60
2022-11-28T18:22:43.789Z,21.30
2022-11-28T18:25:15.615Z,22.30
2022-11-28T18:27:47.105Z,21.70
2022-11-28T18:30:19.459Z,27.90
2022-11-28T18:32:51.008Z,29.10
2022-11-28T18:35:22.698Z,31.30
2022-11-28T18:37:54.587Z,32.60
2022-11-28T18:40:26.386Z,33.30
2022-11-28T18:42:58.533Z,34.30
2022-11-28T18:45:30.157Z,35.60
2022-11-28T18:48:02.823Z,32.80
2022-11-28T18:50:35.244Z,35.90
2022-11-28T18:53:06.776Z,34.50
2022-11-28T18:55:38.279Z,34.60
2022-11-28T18:58:09.803Z,33.50
2022-11-28T19:00:41.346Z,32.10
2022-11-28T19:03:12.852Z,32.70
2022-11-28T19:05:45.534Z,33.80
2022-11-28T19:08:17.040Z,34.90
2022-11-28T19:10:48.561Z,34.30
2022-11-28T19:13:21.128Z,33.60
2022-11-28T19:15:52.694Z,34.90
2022-11-28T19:18:24.269Z,29.90
2022-11-28T19:20:55.845Z,24.20
2022-11-28T19:23:27.354Z,24.40
2022-11-28T19:26:01.592Z,23.10
2022-11-28T19:28:33.400Z,22.80
2022-11-28T19:31:09.429Z,24.20
2022-11-28T19:33:41.582Z,23.70
2022-11-28T19:36:15.817Z,22.20
2022-11-28T19:38:47.691Z,24.40
2022-11-28T19:41:20.709Z,28.00
2022-11-28T19:43:52.629Z,30.60
2022-11-28T19:46:24.507Z,33.60
2022-11-28T19:48:56.048Z,30.80
2022-11-28T19:51:27.904Z,31.10
2022-11-28T19:54:03.524Z,29.70
2022-11-28T19:56:35.643Z,31.70
2022-11-28T19:59:07.149Z,33.00
2022-11-28T20:01:40.501Z,33.50
2022-11-28T20:04:12.443Z,34.60
2022-11-28T20:06:44.092Z,32.40
2022-11-28T20:09:15.589Z,33.70
2022-11-28T20:11:47.219Z,33.80
2022-11-28T20:14:20.660Z,34.50
2022-11-28T20:19:22.856Z,31.20
2022-11-28T20:21:55.180Z,32.40
2022-11-28T20:24:27.049Z,31.40
2022-11-28T20:26:58.678Z,34.90
2022-11-28T20:29:31.332Z,34.50
2022-11-28T20:32:02.947Z,31.70
2022-11-28T20:34:34.633Z,26.20
2022-11-28T20:37:06.171Z,25.10
2022-11-28T20:39:38.084Z,26.80
2022-11-28T20:42:10.257Z,26.80
2022-11-28T20:44:41.835Z,25.10
2022-11-28T20:47:13.805Z,26.00
2022-11-28T20:49:45.471Z,27.20
2022-11-28T20:52:17.214Z,28.10
2022-11-28T20:54:48.770Z,35.30
2022-11-28T20:57:22.191Z,41.30
2022-11-28T20:59:56.790Z,42.10
2022-11-28T21:02:28.353Z,44.10
2022-11-28T21:05:00.187Z,47.30
2022-11-28T21:07:31.748Z,45.60
2022-11-28T21:10:03.798Z,44.60
2022-11-28T21:12:35.593Z,45.60
2022-11-28T21:15:09.036Z,50.60
2022-11-28T21:20:14.072Z,47.70
2022-11-28T21:22:45.669Z,48.10
2022-11-28T21:25:17.253Z,46.00
2022-11-28T21:27:48.737Z,46.30
2022-11-28T21:30:20.544Z,45.50
2022-11-28T21:32:52.082Z,45.10
2022-11-28T21:35:23.700Z,42.80
2022-11-28T21:37:57.025Z,42.20
2022-11-28T21:40:28.570Z,43.80
2022-11-28T21:43:00.368Z,42.30
2022-11-28T21:45:34.455Z,37.40
2022-11-28T21:48:06.594Z,30.90
2022-11-28T21:50:38.494Z,31.10
2022-11-28T21:53:09.943Z,29.10
2022-11-28T21:55:41.462Z,30.70
2022-11-28T21:58:13.041Z,34.00
2022-11-28T22:00:53.477Z,33.70
2022-11-28T22:03:25.859Z,36.90
2022-11-28T22:06:02.717Z,38.00
2022-11-28T22:08:34.586Z,40.00
2022-11-28T22:11:08.653Z,51.00
2022-11-28T22:13:42.174Z,47.70
2022-11-28T22:16:16.476Z,47.90
2022-11-28T22:18:49.016Z,49.10
2022-11-28T22:24:13.018Z,47.80
2022-11-28T22:26:44.646Z,46.50
2022-11-28T22:29:16.678Z,42.00
2022-11-28T22:31:48.310Z,45.60
2022-11-28T22:34:20.230Z,43.80
2022-11-28T22:36:51.719Z,42.90
2022-11-28T22:39:23.507Z,46.20
2022-11-28T22:41:55.015Z,45.10
2022-11-28T22:44:26.689Z,45.10
2022-11-28T22:46:58.157Z,44.50
2022-11-28T22:49:29.736Z,46.90
2022-11-28T22:52:01.261Z,50.80
2022-11-28T22:54:33.033Z,44.60
2022-11-28T22:57:04.785Z,54.60
2022-11-28T22:59:38.620Z,65.10
2022-11-28T23:02:10.411Z,41.90
2022-11-28T23:04:42.549Z,32.90
2022-11-28T23:07:14.434Z,31.50
2022-11-28T23:09:46.097Z,31.80
2022-11-28T23:12:17.670Z,31.30
2022-11-28T23:14:51.736Z,30.30
2022-11-28T23:17:23.265Z,30.60
2022-11-28T23:19:54.754Z,31.00
2022-11-28T23:22:26.243Z,27.70
2022-11-28T23:24:57.839Z,34.20
2022-11-28T23:27:30.701Z,38.90
2022-11-28T23:30:02.300Z,38.90
2022-11-28T23:32:33.911Z,38.90
2022-11-28T23:35:05.752Z,39.20
2022-11-28T23:37:40.646Z,38.30
2022-11-28T23:40:14.195Z,40.90
2022-11-28T23:45:16.771Z,38.30
2022-11-28T23:47:48.390Z,41.00
2022-11-28T23:50:20.213Z,41.20
2022-11-28T23:52:51.762Z,40.50
2022-11-28T23:55:23.268Z,40.00
2022-11-28T23:57:54.973Z,42.20
